A- A+ FrançaisEnglishEspañol中国

最近的 CYRQ Trois RivieresMSSS San Salvador IlopangoLFBT Tarbes-Lourdes-PyrénéesLROD OradeaUEBK KularKIPT Williamsport

飞行员的航空天气,使用METAR(气象机场报告)进行的飞行准备和TAF(终端机场预报:针对以下情况的短期天气预报)航空)。 以及其他资源,例如VAC(目视进近图)和NOTAM(通知飞行员)以进行预试飞行.

METAR, TAF, VAC, NOTAM Nueces County机场 (美国) / OACI KRBO

它位于附近 Robstown, Robstown 在 2.5 km, Flour Bluff Junction 在 19 km, Odem 在 22 km, Bishop 在 24 km, Corpus Christi 在 29 km, Orange Grove 在 31 km, Kingsville 在 33 km, Sinton 在 34 km, 665 Site Colonia 在 34 km, Taft Southwest (historical) 在 36 km,

机场的高度为 Nueces County机场的

24 m = 79 ft

跑道 Nueces County机场的

附近的机场Nueces County机场的

目前的天气 Nueces County机场的 - KRBO

nuages fragmentés
19°C

Vent 20 km/h

可提供5天天气预报 Robstown 在 2.5 km, Flour Bluff Junction 在 19 km, Odem 在 22 km, Bishop 在 24 km, Corpus Christi 在 29 km, Orange Grove 在 31 km, Kingsville 在 33 km, Sinton 在 34 km, 665 Site Colonia 在 34 km, Taft Southwest (historical) 在 36 km,

METAR Nueces County机场的 - KRBO

KRBO 072355Z AUTO 09011KT 10SM BKN039 19/12 A3027 RMK AO2 T01900120 10215 20185

Nueces County机场METAR解码 (美国)

KRBO机场发行的METAR日期2020年03月08日至23:55 GMT. 这是一个自动生成的METAR, 警告:此METAR已过期, 已于 207 天 22 小时 43 分钟.

可见度为16.1 km = 10 sm.

温度为19°C = 66 °F 露点为12°C = 54 °F 。 这相当于64%的相对湿度。.

QNH是1025 hPa = 30.27 inHg

的风11 kt = 20 km/h, 风向为90°.

云:距云3900 ft = 1190 m.

备注 AO2 T01900120 10215 20185

TAF Nueces County机场的 - KRBO

没有TAF

Nueces County机场的NOTAM

提供的NOTAM不能保证其时事性。 在将其用于飞行准备或在飞行期间使用之前,飞行员是唯一负责验证其有效性的人员。

没有通知

数据源